Adak, AK (99546)

3:50 AM HADT on September 30, 2014 (GMT -0900)
Adak | Change Station
CLOSE
Current Station
Airport
Location: Adak,
Elevation: 13 ft
Nearby Weather Stations

Elev 13 ft 51.88 °N, 176.65 °W | Updated 14 minutes ago

Overcast
Overcast
48 °F
Feels Like 48 °F
N
8
Wind Variable Wind from East

Today
High -- | Low -- °F
--% Chance of Precip.
Yesterday
High -- | Low -- °F
Precip. -- in
8:46 AM 8:25 PM
Waxing Crescent, 36% visible
Pressure 30.00 in
Visibility 9.0 miles
Clouds Mostly Cloudy 2800 ft
Overcast 3400 ft
Dew Point 41 °F
Humidity 76%
Rainfall 0.00 in
Snow Depth 2 in , 2 in , 9 in
UV 0 out of 12
Pollen Not available.
Air Quality Not available.
Flu Activity Not available.
METAR PADK 301236Z AUTO 10007KT 9SM BKN028 OVC034 09/05 A3000 RMK AO1

More Conditions Fewer Conditions

Pressure 30.00 in
Visibility 9.0 miles
Clouds Mostly Cloudy 2800 ft
Overcast 3400 ft
Dew Point 41 °F
Humidity 76%
Rainfall 0.00 in
Snow Depth 2 in , 2 in , 9 in
UV 0 out of 12
Pollen Not available.
Air Quality Not available.
Flu Activity Not available.
METAR PADK 301236Z AUTO 10007KT 9SM BKN028 OVC034 09/05 A3000 RMK AO1

More Conditions Fewer Conditions

10-Day Weather Forecast

Almanac

Astronomy

Sep. 30, 2014 Rise Set
Actual Time 8:46 AM HADT 8:25 PM HADT
Civil Twilight 8:12 AM HADT 8:59 PM HADT
Nautical Twilight 7:33 AM HADT 9:38 PM HADT
Astronomical Twilight 6:53 AM HADT 10:18 PM HADT
Moon 3:40 PM HADT No Moon Set
Length of Visible Light 12h 46m
Length of Day
11h 39m
Tomorrow will be 3m 57s shorter.
Waxing Crescent, 36% of the Moon is Illuminated
Today
Waxing Crescent
Oct 1
First Quarter
Oct 8
Full
Oct 15
Last Quarter
Oct 23
New

Today's Extremes

State Highs State Lows

Community

WunderPhotos

Upload Photos

1,757,625 photos uploaded!

Nearby

Snow Depth

Station Depth Elevation
Indian Pass 2 in 2300 ft
Mt. Ryan 1 in 2800 ft
Little Chena Ridge 0 in 2000 ft
Coldfoot 2 in 1040 ft
Summit Creek 0 in 1400 ft

Earthquake Activity

City Distance Mag. Time & Date
No recent earthquake activity has been reported nearby.
Minimum magnitude displayed is 2.5.

Coastal Water Temperatures

Place Temperature
No Stations Reporting

Nearby Weather Stations